Time;durP1;ratioP1;P1;durP2;ratioP2;P2;SDS_P1;SDS_P2;PMS_P1;PMS_P2;Temp;Humidity;BMP_temperature;BMP_pressure;BME280_temperature;BME280_humidity;BME280_pressure;Samples;Min_cycle;Max_cycle;Signal;HPM_P1;HPM_P2
2022/09/14 00:01:19;;;;;;;19.63;17.67;;;15.90;99.90;;;;;;5039954;28;20033;-74
2022/09/14 00:04:16;;;;;;;19.40;17.90;;;15.90;99.90;;;;;;5044090;28;20045;-74
2022/09/14 00:06:44;;;;;;;19.27;17.58;;;15.80;99.90;;;;;;5037735;28;20175;-74
2022/09/14 00:09:16;;;;;;;24.77;18.15;;;15.70;99.90;;;;;;5042079;28;20056;-74
2022/09/14 00:11:47;;;;;;;19.42;17.73;;;15.70;99.90;;;;;;5036553;28;20041;-74
2022/09/14 00:14:15;;;;;;;18.98;17.50;;;15.60;99.90;;;;;;5026499;28;20037;-74
2022/09/14 00:16:42;;;;;;;18.77;17.35;;;15.50;99.90;;;;;;5043010;28;20048;-73
2022/09/14 00:19:19;;;;;;;19.52;18.02;;;15.50;99.90;;;;;;5039725;28;20044;-72
2022/09/14 00:21:50;;;;;;;18.83;17.27;;;15.50;99.90;;;;;;5036307;28;20041;-74
2022/09/14 00:24:17;;;;;;;19.75;18.02;;;15.60;99.90;;;;;;5039675;28;20684;-72
2022/09/14 00:26:44;;;;;;;18.80;17.15;;;15.60;99.90;;;;;;5042625;28;20044;-73
2022/09/14 00:29:11;;;;;;;19.85;18.10;;;15.60;99.90;;;;;;5041337;28;20048;-71
2022/09/14 00:31:38;;;;;;;19.55;17.60;;;15.70;99.90;;;;;;5034784;28;20116;-72
2022/09/14 00:34:07;;;;;;;19.48;17.27;;;15.80;99.90;;;;;;5041556;28;20106;-72
2022/09/14 00:36:39;;;;;;;19.02;17.30;;;15.70;99.90;;;;;;5041170;28;20044;-71
2022/09/14 00:39:07;;;;;;;19.65;17.83;;;15.70;99.90;;;;;;5041081;28;20051;-72
2022/09/14 00:41:36;;;;;;;18.17;16.80;;;15.80;99.90;;;;;;5022080;28;20033;-73
2022/09/14 00:44:04;;;;;;;19.02;17.23;;;15.70;99.90;;;;;;5041309;28;20056;-73
2022/09/14 00:46:37;;;;;;;18.75;17.27;;;15.70;99.90;;;;;;5039606;28;20368;-73
2022/09/14 00:49:11;;;;;;;18.85;17.20;;;15.80;99.90;;;;;;5005138;28;20221;-73
2022/09/14 00:51:44;;;;;;;21.27;18.33;;;15.70;99.90;;;;;;5035144;28;20059;-73
2022/09/14 00:54:11;;;;;;;19.75;17.60;;;15.80;99.90;;;;;;5027031;28;20454;-73
2022/09/14 00:56:38;;;;;;;18.52;17.25;;;15.70;99.90;;;;;;5036714;28;20128;-73
2022/09/14 00:59:12;;;;;;;19.30;17.67;;;15.60;99.90;;;;;;5039977;28;20033;-73
2022/09/14 01:01:38;;;;;;;17.63;16.55;;;15.60;99.90;;;;;;5035062;28;20034;-73
2022/09/14 01:04:05;;;;;;;19.75;18.15;;;15.60;99.90;;;;;;5041178;28;20251;-74
2022/09/14 01:06:36;;;;;;;18.55;17.08;;;15.60;99.90;;;;;;5040788;28;20056;-73
2022/09/14 01:09:21;;;;;;;20.33;18.10;;;15.60;99.90;;;;;;5053040;28;20044;-72
2022/09/14 01:12:10;;;;;;;19.35;17.48;;;15.60;99.90;;;;;;5017809;28;20037;-72
2022/09/14 01:14:45;;;;;;;18.58;16.88;;;15.50;99.90;;;;;;5042816;28;20137;-71
2022/09/14 01:17:16;;;;;;;;;;;15.30;99.90;;;;;;5047653;28;20045;-72
2022/09/14 01:20:06;;;;;;;19.58;17.75;;;15.20;99.90;;;;;;5036182;28;19927;-71
2022/09/14 01:22:43;;;;;;;19.48;17.70;;;15.10;99.90;;;;;;5039720;28;23246;-73
2022/09/14 01:25:50;;;;;;;19.75;17.90;;;15.20;99.90;;;;;;5046447;28;20051;-71
2022/09/14 01:28:52;;;;;;;18.95;17.48;;;15.30;99.90;;;;;;5021073;28;20418;-73
2022/09/14 01:31:37;;;;;;;19.67;17.77;;;15.20;99.90;;;;;;5000818;28;20049;-72
2022/09/14 01:34:12;;;;;;;19.85;18.13;;;15.20;99.90;;;;;;5051394;22;20495;-72
2022/09/14 01:36:43;;;;;;;20.15;18.35;;;15.30;99.90;;;;;;5031674;28;20046;-73
2022/09/14 01:39:10;;;;;;;19.35;17.80;;;15.50;99.90;;;;;;5030793;28;20049;-72
2022/09/14 01:41:41;;;;;;;19.52;17.80;;;15.50;99.90;;;;;;5009168;28;20045;-73
2022/09/14 01:44:15;;;;;;;19.85;17.85;;;15.30;99.90;;;;;;5016200;28;20057;-72
2022/09/14 01:46:50;;;;;;;18.37;16.93;;;15.30;99.90;;;;;;5003911;28;20057;-73
2022/09/14 01:49:22;;;;;;;18.55;16.70;;;15.40;99.90;;;;;;5016290;28;20569;-72
2022/09/14 01:51:55;;;;;;;18.63;17.02;;;15.40;99.90;;;;;;5027026;28;20037;-72
2022/09/14 01:54:40;;;;;;;18.05;16.60;;;15.30;99.90;;;;;;4999498;28;20059;-72
2022/09/14 01:57:34;;;;;;;18.75;17.13;;;15.20;99.90;;;;;;5004874;28;20129;-73
2022/09/14 02:00:11;;;;;;;19.40;17.70;;;15.20;99.90;;;;;;5012363;28;20049;-73
2022/09/14 02:02:43;;;;;;;19.23;17.33;;;15.20;99.90;;;;;;5001317;28;20045;-73
2022/09/14 02:05:14;;;;;;;18.20;16.92;;;15.20;99.90;;;;;;5028954;28;20048;-73
2022/09/14 02:07:40;;;;;;;19.17;17.40;;;15.10;99.90;;;;;;4999875;28;20037;-73
2022/09/14 02:10:11;;;;;;;18.98;17.33;;;15.20;99.90;;;;;;5004760;28;20041;-73
2022/09/14 02:12:39;;;;;;;19.63;17.60;;;15.30;99.90;;;;;;5009219;28;20037;-73
2022/09/14 02:15:09;;;;;;;19.25;17.35;;;15.30;99.90;;;;;;5024966;28;20517;-73
2022/09/14 02:17:36;;;;;;;19.50;17.70;;;15.30;99.90;;;;;;5018084;28;20064;-73
2022/09/14 02:20:06;;;;;;;19.90;17.10;;;15.30;99.90;;;;;;5013772;28;20707;-72
2022/09/14 02:22:33;;;;;;;18.85;17.20;;;15.30;99.90;;;;;;5005451;28;20121;-72
2022/09/14 02:25:01;;;;;;;19.58;17.58;;;15.40;99.90;;;;;;4985792;28;20543;-72
2022/09/14 02:27:28;;;;;;;18.02;16.52;;;15.50;99.90;;;;;;5022276;28;20041;-72
2022/09/14 02:29:55;;;;;;;18.65;16.75;;;15.40;99.90;;;;;;5021876;28;20049;-72
2022/09/14 02:32:49;;;;;;;17.48;16.30;;;15.30;99.90;;;;;;5011635;28;20056;-72
2022/09/14 02:35:35;;;;;;;18.48;16.80;;;15.40;99.90;;;;;;5010991;28;20053;-72
2022/09/14 02:38:04;;;;;;;19.67;17.90;;;15.40;99.90;;;;;;5014205;28;20042;-72
2022/09/14 02:40:42;;;;;;;19.92;17.88;;;15.50;99.90;;;;;;5023969;28;20043;-72
2022/09/14 02:43:20;;;;;;;19.25;17.67;;;15.50;99.90;;;;;;5024834;28;20041;-72
2022/09/14 02:45:58;;;;;;;18.98;17.58;;;15.40;99.90;;;;;;5006637;28;20069;-72
2022/09/14 02:48:49;;;;;;;19.67;17.77;;;15.40;99.90;;;;;;5008220;28;20052;-72
2022/09/14 02:51:51;;;;;;;19.33;17.77;;;15.50;99.90;;;;;;5022711;28;20073;-72
2022/09/14 02:54:31;;;;;;;19.17;17.63;;;15.60;99.90;;;;;;5024262;28;20091;-72
2022/09/14 02:57:02;;;;;;;19.52;17.75;;;15.50;99.90;;;;;;5003191;28;20267;-72
2022/09/14 02:59:29;;;;;;;20.25;18.17;;;15.40;99.90;;;;;;5019343;28;20128;-72
2022/09/14 03:01:59;;;;;;;19.38;17.88;;;15.40;99.90;;;;;;5004062;28;20033;-72
2022/09/14 03:04:26;;;;;;;18.50;16.77;;;15.30;99.90;;;;;;5021957;28;20414;-72
2022/09/14 03:06:53;;;;;;;18.83;17.50;;;15.20;99.90;;;;;;4994160;28;20251;-73
2022/09/14 03:09:19;;;;;;;19.42;17.45;;;15.30;99.90;;;;;;5006736;28;20049;-73
2022/09/14 03:11:46;;;;;;;18.10;16.88;;;15.30;99.90;;;;;;4999383;28;20037;-73
2022/09/14 03:14:13;;;;;;;19.42;17.85;;;15.40;99.90;;;;;;5007568;28;20048;-72
2022/09/14 03:16:39;;;;;;;19.13;17.88;;;15.40;99.90;;;;;;5004353;28;20033;-72
2022/09/14 03:19:06;;;;;;;19.13;17.55;;;15.40;99.90;;;;;;5004997;28;20049;-72
2022/09/14 03:21:33;;;;;;;19.30;17.90;;;15.40;99.90;;;;;;4987486;28;20130;-72
2022/09/14 03:23:59;;;;;;;19.20;17.55;;;15.50;99.90;;;;;;4991431;28;20056;-72
2022/09/14 03:26:28;;;;;;;19.52;18.00;;;15.30;99.90;;;;;;5032140;28;20654;-72
2022/09/14 03:28:57;;;;;;;20.15;18.30;;;15.20;99.90;;;;;;5026171;28;20068;-72
2022/09/14 03:31:25;;;;;;;20.15;18.35;;;15.20;99.90;;;;;;4992426;28;20120;-73
2022/09/14 03:33:56;;;;;;;19.65;17.73;;;15.30;99.90;;;;;;5026625;28;20411;-72
2022/09/14 03:36:25;;;;;;;19.33;17.63;;;15.40;99.90;;;;;;5009668;28;20430;-72
2022/09/14 03:38:54;;;;;;;19.08;17.58;;;15.40;99.90;;;;;;5031867;28;20416;-72
2022/09/14 03:41:22;;;;;;;19.73;18.10;;;15.40;99.90;;;;;;5008574;28;20060;-72
2022/09/14 03:43:49;;;;;;;19.75;18.08;;;15.30;99.90;;;;;;5007474;28;20040;-72
2022/09/14 03:46:20;;;;;;;20.08;18.00;;;15.20;99.90;;;;;;5028436;28;20076;-72
2022/09/14 03:48:47;;;;;;;20.92;17.95;;;15.20;99.90;;;;;;5003531;28;20496;-73
2022/09/14 03:51:14;;;;;;;20.30;18.33;;;15.10;99.90;;;;;;5007796;28;20045;-73
2022/09/14 03:53:43;;;;;;;18.70;17.20;;;15.10;99.90;;;;;;5021358;28;20037;-73
2022/09/14 03:56:13;;;;;;;18.58;17.13;;;15.10;99.90;;;;;;5030454;28;20152;-72
2022/09/14 03:58:41;;;;;;;19.10;17.73;;;15.10;99.90;;;;;;5024981;28;20048;-72
2022/09/14 04:01:13;;;;;;;18.15;16.80;;;15.00;99.90;;;;;;5024391;28;20045;-73
2022/09/14 04:03:41;;;;;;;19.75;17.60;;;15.00;99.90;;;;;;5026155;28;20052;-72
2022/09/14 04:06:08;;;;;;;18.13;16.52;;;15.00;99.90;;;;;;4988269;28;20046;-72
2022/09/14 04:08:37;;;;;;;18.25;16.77;;;15.00;99.90;;;;;;5008771;28;20053;-72
2022/09/14 04:11:20;;;;;;;16.98;15.30;;;14.80;99.90;;;;;;5009429;28;20076;-72
2022/09/14 04:13:47;;;;;;;19.50;16.55;;;14.80;99.90;;;;;;5006509;28;20048;-72
2022/09/14 04:16:15;;;;;;;17.35;16.00;;;14.80;99.90;;;;;;5033994;28;20514;-72
2022/09/14 04:18:43;;;;;;;18.65;16.67;;;14.80;99.90;;;;;;5004340;28;20049;-72
2022/09/14 04:21:14;;;;;;;18.98;16.83;;;14.90;99.90;;;;;;5006209;28;20141;-72
2022/09/14 04:23:41;;;;;;;18.15;16.60;;;14.90;99.90;;;;;;5012646;28;20051;-72
2022/09/14 04:26:29;;;;;;;18.17;16.73;;;14.90;99.90;;;;;;5011774;28;20048;-72
2022/09/14 04:28:56;;;;;;;18.67;17.05;;;15.00;99.90;;;;;;4984250;28;20333;-73
2022/09/14 04:31:24;;;;;;;18.85;17.23;;;15.00;99.90;;;;;;5029541;28;20045;-72
2022/09/14 04:33:55;;;;;;;18.73;17.35;;;15.10;99.90;;;;;;5008986;28;20048;-73
2022/09/14 04:36:24;;;;;;;20.20;17.77;;;15.00;99.90;;;;;;5029028;28;20236;-74
2022/09/14 04:38:53;;;;;;;19.17;17.65;;;15.10;99.90;;;;;;5009939;28;20044;-74
2022/09/14 04:41:20;;;;;;;21.35;19.00;;;15.10;99.90;;;;;;5013410;28;20111;-74
2022/09/14 04:43:49;;;;;;;19.30;17.75;;;15.20;99.90;;;;;;5008021;28;20042;-73
2022/09/14 04:46:18;;;;;;;18.92;17.40;;;15.20;99.90;;;;;;5031615;28;20218;-73
2022/09/14 04:48:46;;;;;;;19.35;17.63;;;15.30;99.90;;;;;;5007320;28;20056;-72
2022/09/14 04:51:15;;;;;;;20.95;17.55;;;15.50;99.90;;;;;;5025956;28;20079;-72
2022/09/14 04:53:44;;;;;;;20.25;18.20;;;15.50;99.90;;;;;;5019251;28;20095;-72
2022/09/14 04:56:12;;;;;;;19.92;17.80;;;15.20;99.90;;;;;;5018741;28;20038;-72
2022/09/14 04:58:42;;;;;;;18.17;16.90;;;15.20;99.90;;;;;;5001704;28;20045;-72
2022/09/14 05:01:14;;;;;;;19.77;18.30;;;15.30;99.90;;;;;;5004494;28;20236;-72
2022/09/14 05:03:41;;;;;;;18.95;17.33;;;15.40;99.90;;;;;;5028644;28;20147;-72
2022/09/14 05:06:14;;;;;;;18.80;17.13;;;15.50;99.90;;;;;;5022697;28;20096;-72
2022/09/14 05:08:41;;;;;;;25.58;19.17;;;15.50;99.90;;;;;;5009756;28;20214;-72
2022/09/14 05:11:13;;;;;;;18.58;17.15;;;15.40;99.90;;;;;;5001640;28;20388;-72
2022/09/14 05:13:39;;;;;;;20.08;18.27;;;15.40;99.90;;;;;;5025422;28;20482;-72
2022/09/14 05:16:14;;;;;;;19.48;17.52;;;15.40;99.90;;;;;;5025507;28;20560;-72
2022/09/14 05:18:42;;;;;;;19.27;17.83;;;15.30;99.90;;;;;;5013637;28;20048;-72
2022/09/14 05:21:13;;;;;;;18.30;16.92;;;15.30;99.90;;;;;;4991940;28;20500;-72
2022/09/14 05:23:40;;;;;;;18.35;16.85;;;15.20;99.90;;;;;;5007171;28;20061;-72
2022/09/14 05:26:07;;;;;;;18.38;16.88;;;15.30;99.90;;;;;;5000777;28;20081;-72
2022/09/14 05:28:35;;;;;;;19.15;17.58;;;15.30;99.90;;;;;;5022063;28;20041;-72
2022/09/14 05:31:06;;;;;;;19.38;17.65;;;15.40;99.90;;;;;;5021745;28;20128;-72
2022/09/14 05:33:34;;;;;;;18.60;17.15;;;15.40;99.90;;;;;;5026329;28;20459;-72
2022/09/14 05:36:02;;;;;;;18.92;17.38;;;15.40;99.90;;;;;;5005498;28;20041;-72
2022/09/14 05:38:30;;;;;;;19.23;17.85;;;15.50;99.90;;;;;;5008075;28;20052;-72
2022/09/14 05:40:57;;;;;;;20.08;18.08;;;15.40;99.90;;;;;;5003858;28;20034;-71
2022/09/14 05:43:24;;;;;;;19.60;17.92;;;15.30;99.90;;;;;;5023678;28;20060;-72
2022/09/14 05:45:51;;;;;;;19.42;17.48;;;15.20;99.90;;;;;;5015278;28;20043;-72
2022/09/14 05:48:18;;;;;;;19.90;18.33;;;15.20;99.90;;;;;;5006269;28;20130;-72
2022/09/14 05:50:45;;;;;;;19.30;17.30;;;15.10;99.90;;;;;;5021212;28;20073;-71
2022/09/14 05:53:12;;;;;;;20.42;18.35;;;14.90;99.90;;;;;;5023551;28;20075;-72
2022/09/14 05:55:38;;;;;;;18.50;16.85;;;14.90;99.90;;;;;;5020143;28;20037;-72
2022/09/14 05:58:05;;;;;;;17.85;16.80;;;14.90;99.90;;;;;;5023340;28;20041;-73
2022/09/14 06:00:32;;;;;;;19.05;17.15;;;14.70;99.90;;;;;;5027746;28;20049;-73
2022/09/14 06:02:58;;;;;;;19.00;17.40;;;14.60;99.90;;;;;;5000370;28;20052;-72
2022/09/14 06:05:25;;;;;;;17.85;16.55;;;14.70;99.90;;;;;;5025327;28;20049;-73
2022/09/14 06:07:53;;;;;;;18.58;17.17;;;14.70;99.90;;;;;;5022305;28;20048;-73
2022/09/14 06:10:20;;;;;;;18.50;16.80;;;14.70;99.90;;;;;;5021309;28;20542;-72
2022/09/14 06:12:47;;;;;;;18.33;16.83;;;14.70;99.90;;;;;;5030343;28;20503;-72
2022/09/14 06:15:23;;;;;;;19.05;17.08;;;14.80;99.90;;;;;;5028899;28;20048;-73
2022/09/14 06:17:50;;;;;;;19.10;17.55;;;14.80;99.90;;;;;;5010397;28;20133;-73
2022/09/14 06:20:17;;;;;;;17.33;15.93;;;14.70;99.90;;;;;;5001629;28;21476;-73
2022/09/14 06:22:44;;;;;;;17.08;15.82;;;14.70;99.90;;;;;;5015402;28;20651;-73
2022/09/14 06:25:11;;;;;;;17.83;16.02;;;14.70;99.90;;;;;;5013272;28;20059;-73
2022/09/14 06:27:37;;;;;;;17.63;15.82;;;14.70;99.90;;;;;;4989473;28;20728;-73
2022/09/14 06:30:05;;;;;;;18.23;16.50;;;14.60;99.90;;;;;;5019605;28;20738;-73
2022/09/14 06:32:32;;;;;;;16.77;15.32;;;14.60;99.90;;;;;;5007511;28;20079;-73
2022/09/14 06:34:58;;;;;;;16.95;15.40;;;14.80;99.90;;;;;;4996617;28;20603;-73
2022/09/14 06:37:25;;;;;;;18.15;16.52;;;15.00;99.90;;;;;;4999481;28;20032;-73
2022/09/14 06:39:52;;;;;;;18.30;16.75;;;14.90;99.90;;;;;;5020099;28;20068;-73
2022/09/14 06:42:18;;;;;;;18.65;16.95;;;14.80;99.90;;;;;;5016382;28;20613;-73
2022/09/14 06:44:50;;;;;;;17.38;15.75;;;14.80;99.90;;;;;;4998593;28;20746;-72
2022/09/14 06:47:17;;;;;;;16.33;15.15;;;14.80;99.90;;;;;;5030963;28;20076;-74
2022/09/14 06:49:43;;;;;;;16.48;15.15;;;14.70;99.90;;;;;;4998816;28;20041;-74
2022/09/14 06:52:10;;;;;;;16.48;15.10;;;14.60;99.90;;;;;;5031839;28;20042;-74
2022/09/14 06:54:37;;;;;;;16.17;14.75;;;14.60;99.90;;;;;;5024579;28;20085;-73
2022/09/14 06:57:05;;;;;;;16.95;15.45;;;14.60;99.90;;;;;;5029095;28;20200;-73
2022/09/14 06:59:32;;;;;;;16.23;14.35;;;14.50;99.90;;;;;;5011821;28;20415;-72
2022/09/14 07:01:58;;;;;;;13.98;12.88;;;14.50;99.90;;;;;;5026354;28;20046;-72
2022/09/14 07:04:25;;;;;;;16.90;13.40;;;14.40;99.90;;;;;;5007090;28;20075;-73
2022/09/14 07:06:52;;;;;;;15.65;14.00;;;14.50;99.90;;;;;;5007865;28;20044;-73
2022/09/14 07:09:19;;;;;;;14.63;13.40;;;14.50;99.90;;;;;;5011202;28;21103;-73
2022/09/14 07:11:46;;;;;;;14.40;13.18;;;14.50;99.90;;;;;;5031158;28;20059;-73
2022/09/14 07:14:13;;;;;;;17.50;14.35;;;14.40;99.90;;;;;;5013014;28;20424;-75
2022/09/14 07:16:40;;;;;;;17.25;13.35;;;14.50;99.90;;;;;;5014053;28;20124;-74
2022/09/14 07:19:10;;;;;;;14.40;13.05;;;14.60;99.90;;;;;;5029043;28;20046;-76
2022/09/14 07:21:37;;;;;;;14.13;13.23;;;14.70;99.90;;;;;;4994217;28;20081;-76
2022/09/14 07:24:04;;;;;;;14.73;13.40;;;14.50;99.90;;;;;;5015868;28;20114;-75
2022/09/14 07:26:38;;;;;;;16.50;13.02;;;14.50;99.90;;;;;;5016914;28;20044;-76
2022/09/14 07:29:07;;;;;;;14.73;13.23;;;14.50;99.90;;;;;;5011440;28;20076;-75
2022/09/14 07:31:54;;;;;;;15.90;14.20;;;14.60;99.90;;;;;;5031519;28;20152;-75
2022/09/14 07:34:21;;;;;;;17.33;15.50;;;14.70;99.90;;;;;;4984948;22;20050;-72
2022/09/14 07:36:48;;;;;;;25.88;13.90;;;14.60;99.90;;;;;;4980910;28;20686;-72
2022/09/14 07:39:16;;;;;;;15.43;13.02;;;14.60;99.90;;;;;;4967830;28;20054;-72
2022/09/14 07:41:44;;;;;;;14.52;13.18;;;14.70;99.90;;;;;;4982003;28;20531;-72
2022/09/14 07:44:14;;;;;;;14.38;13.02;;;14.80;99.90;;;;;;4969266;28;20046;-71
2022/09/14 07:46:43;;;;;;;14.68;13.25;;;15.00;99.90;;;;;;4981488;28;20149;-72
2022/09/14 07:49:11;;;;;;;15.68;12.50;;;15.00;99.90;;;;;;4960968;28;20129;-72
2022/09/14 07:51:38;;;;;;;14.43;12.85;;;15.00;99.90;;;;;;4980004;28;20034;-72
2022/09/14 07:54:06;;;;;;;16.90;13.40;;;15.10;99.90;;;;;;4981201;28;20042;-73
2022/09/14 07:56:34;;;;;;;15.73;14.32;;;15.00;99.90;;;;;;4964428;28;20109;-71
2022/09/14 07:59:02;;;;;;;19.33;14.23;;;14.80;99.90;;;;;;4961438;28;20536;-70
2022/09/14 08:01:49;;;;;;;15.07;13.65;;;14.70;99.90;;;;;;4979883;28;20049;-71
2022/09/14 08:04:16;;;;;;;16.63;13.73;;;14.70;99.90;;;;;;4971077;28;20050;-71
2022/09/14 08:06:43;;;;;;;18.83;15.50;;;14.80;99.90;;;;;;4975007;28;20042;-73
2022/09/14 08:09:09;;;;;;;15.90;14.63;;;14.80;99.90;;;;;;4963365;28;20054;-74
2022/09/14 08:11:37;;;;;;;18.88;14.10;;;14.80;99.90;;;;;;4994368;28;20049;-73
2022/09/14 08:14:10;;;;;;;15.25;14.18;;;14.90;99.90;;;;;;4989627;28;20524;-73
2022/09/14 08:16:37;;;;;;;15.30;14.13;;;14.80;99.90;;;;;;4964309;28;20232;-73
2022/09/14 08:19:09;;;;;;;15.68;14.25;;;14.90;99.90;;;;;;4979213;28;20058;-73
2022/09/14 08:21:36;;;;;;;17.33;15.55;;;15.00;99.90;;;;;;4979575;28;20054;-73
2022/09/14 08:24:03;;;;;;;16.08;14.52;;;14.90;99.90;;;;;;4957590;28;20706;-73
2022/09/14 08:26:30;;;;;;;15.88;14.52;;;14.90;99.90;;;;;;4961660;28;20086;-73
2022/09/14 08:29:01;;;;;;;16.00;14.82;;;15.00;99.90;;;;;;4978334;28;20042;-73
2022/09/14 08:31:28;;;;;;;17.88;16.50;;;15.10;99.90;;;;;;4962765;28;20138;-73
2022/09/14 08:33:58;;;;;;;21.08;15.23;;;15.00;99.90;;;;;;4981832;28;20049;-73
2022/09/14 08:36:28;;;;;;;17.40;15.93;;;15.20;99.90;;;;;;4983311;28;20046;-73
2022/09/14 08:38:54;;;;;;;18.50;16.80;;;15.20;99.90;;;;;;4985977;28;20097;-73
2022/09/14 08:41:49;;;;;;;17.88;15.45;;;15.00;99.90;;;;;;4978916;28;20046;-73
2022/09/14 08:44:40;;;;;;;17.40;15.75;;;15.10;99.90;;;;;;4979306;28;20133;-75
2022/09/14 08:47:24;;;;;;;22.25;16.25;;;15.10;99.90;;;;;;4979139;28;20051;-75
2022/09/14 08:49:56;;;;;;;15.75;14.32;;;15.40;99.90;;;;;;4980080;28;20054;-74
2022/09/14 08:52:46;;;;;;;16.10;14.70;;;15.40;99.90;;;;;;4984743;28;20042;-73
2022/09/14 08:55:39;;;;;;;17.05;15.43;;;15.40;99.90;;;;;;4976087;28;20054;-73
2022/09/14 08:58:09;;;;;;;17.85;16.23;;;15.50;99.90;;;;;;4966217;28;20045;-74
2022/09/14 09:00:40;;;;;;;18.15;16.70;;;15.50;99.90;;;;;;4982532;28;20415;-76
2022/09/14 09:03:29;;;;;;;17.98;16.40;;;15.20;99.90;;;;;;4963595;28;20120;-74
2022/09/14 09:06:01;;;;;;;17.70;15.93;;;15.20;99.90;;;;;;4982388;28;20069;-74
2022/09/14 09:08:37;;;;;;;18.48;16.63;;;15.30;99.90;;;;;;4983633;28;20045;-73
2022/09/14 09:11:11;;;;;;;15.82;14.93;;;15.30;99.90;;;;;;4978223;28;20045;-76
2022/09/14 09:13:39;;;;;;;18.33;16.83;;;15.20;99.90;;;;;;4982742;28;20047;-75
2022/09/14 09:16:08;;;;;;;17.25;15.73;;;15.30;99.90;;;;;;4961957;28;20578;-75
2022/09/14 09:18:41;;;;;;;16.42;14.90;;;15.20;99.90;;;;;;4979973;28;20053;-75
2022/09/14 09:21:16;;;;;;;28.85;26.08;;;15.40;99.90;;;;;;4975277;28;20047;-72
2022/09/14 09:23:43;;;;;;;17.37;15.73;;;15.40;99.90;;;;;;4976825;28;20108;-75
2022/09/14 09:26:24;;;;;;;17.45;16.10;;;15.40;99.90;;;;;;4978608;28;20146;-75
2022/09/14 09:28:53;;;;;;;19.10;16.42;;;15.30;99.90;;;;;;4976717;28;20043;-75
2022/09/14 09:31:43;;;;;;;18.00;16.40;;;15.20;99.90;;;;;;4977756;28;20104;-75
2022/09/14 09:34:29;;;;;;;16.20;14.82;;;15.20;99.90;;;;;;4950421;28;20661;-75
2022/09/14 09:37:14;;;;;;;15.00;13.52;;;15.30;99.90;;;;;;4960500;28;20034;-74
2022/09/14 09:39:42;;;;;;;15.45;13.98;;;15.50;99.90;;;;;;4962854;28;20038;-74
2022/09/14 09:42:27;;;;;;;15.00;13.63;;;15.60;99.90;;;;;;4960775;28;20042;-74
2022/09/14 09:44:56;;;;;;;14.48;13.48;;;15.20;99.90;;;;;;4978499;28;20121;-74
2022/09/14 09:47:38;;;;;;;13.48;12.18;;;14.90;99.90;;;;;;4963525;28;20038;-76
2022/09/14 09:50:17;;;;;;;15.57;12.35;;;14.90;99.90;;;;;;4956956;28;21375;-76
2022/09/14 09:52:58;;;;;;;13.10;12.10;;;15.00;99.90;;;;;;4978115;28;20046;-76
2022/09/14 09:55:37;;;;;;;14.50;12.85;;;15.00;99.90;;;;;;4963892;28;20046;-75
2022/09/14 09:58:34;;;;;;;15.35;13.75;;;15.00;99.90;;;;;;4968533;28;20050;-74
2022/09/14 10:01:16;;;;;;;14.68;13.30;;;15.00;99.90;;;;;;4959683;28;20042;-74
2022/09/14 10:03:50;;;;;;;14.32;12.93;;;15.10;99.90;;;;;;4961302;28;20038;-75
2022/09/14 10:06:17;;;;;;;14.00;12.00;;;15.10;99.90;;;;;;4977502;28;21783;-77
2022/09/14 10:08:46;;;;;;;13.02;11.55;;;15.10;99.90;;;;;;4981213;28;20049;-73
2022/09/14 10:11:29;;;;;;;12.43;11.40;;;15.20;99.90;;;;;;4976109;28;20614;-77
2022/09/14 10:13:57;;;;;;;13.65;12.27;;;15.10;99.90;;;;;;4976246;28;20086;-76
2022/09/14 10:16:28;;;;;;;12.98;11.52;;;15.20;99.90;;;;;;4958801;28;20045;-75
2022/09/14 10:18:58;;;;;;;14.98;11.52;;;15.10;99.90;;;;;;4982667;28;20967;-74
2022/09/14 10:21:25;;;;;;;14.50;13.07;;;15.10;99.90;;;;;;4943636;28;20633;-73
2022/09/14 10:24:04;;;;;;;12.20;11.15;;;15.00;99.90;;;;;;4977921;28;20539;-74
2022/09/14 10:26:34;;;;;;;12.25;11.20;;;15.00;99.90;;;;;;4979141;28;20424;-74
2022/09/14 10:29:35;;;;;;;18.40;11.65;;;15.00;99.90;;;;;;4977931;28;20046;-73
2022/09/14 10:32:25;;;;;;;13.18;11.65;;;15.00;99.90;;;;;;4973810;28;20136;-74
2022/09/14 10:34:52;;;;;;;13.82;12.65;;;15.10;99.90;;;;;;4976401;28;20069;-74
2022/09/14 10:37:56;;;;;;;20.48;12.55;;;15.20;99.90;;;;;;4959829;28;21359;-74
2022/09/14 10:40:43;;;;;;;12.35;11.13;;;15.10;99.90;;;;;;4963874;28;20046;-74
2022/09/14 10:43:50;;;;;;;14.60;11.07;;;15.10;99.90;;;;;;4959132;28;20062;-73
2022/09/14 10:46:20;;;;;;;14.77;10.95;;;15.20;99.90;;;;;;4974385;28;20051;-77
2022/09/14 10:48:47;;;;;;;11.57;10.38;;;14.90;99.90;;;;;;4980256;28;20404;-75
2022/09/14 10:51:34;;;;;;;12.80;11.48;;;14.80;99.90;;;;;;4940148;28;20035;-76
2022/09/14 10:54:15;;;;;;;13.30;11.85;;;14.70;99.90;;;;;;4982827;28;20066;-75
2022/09/14 10:56:53;;;;;;;12.70;11.57;;;14.60;99.90;;;;;;4960339;28;20046;-78
2022/09/14 10:59:26;;;;;;;13.93;12.60;;;14.70;99.90;;;;;;4961099;28;20047;-76
2022/09/14 11:01:53;;;;;;;12.70;11.35;;;14.70;99.90;;;;;;4945895;28;20034;-75
2022/09/14 11:04:48;;;;;;;13.23;12.00;;;14.80;99.90;;;;;;4963292;28;20106;-74
2022/09/14 11:07:28;;;;;;;12.13;10.68;;;14.80;99.90;;;;;;4979899;28;20097;-75
2022/09/14 11:10:23;;;;;;;13.90;10.90;;;14.90;99.90;;;;;;4979170;28;20161;-75
2022/09/14 11:13:18;;;;;;;13.65;10.68;;;14.90;99.90;;;;;;4974024;28;20057;-74
2022/09/14 11:15:53;;;;;;;11.02;9.93;;;15.00;99.90;;;;;;4957004;28;20047;-76
2022/09/14 11:18:38;;;;;;;12.77;10.90;;;15.00;99.90;;;;;;4973989;28;20543;-74
2022/09/14 11:21:29;;;;;;;10.93;9.85;;;15.00;99.90;;;;;;4959495;28;20638;-73
2022/09/14 11:24:02;;;;;;;12.38;11.30;;;15.00;99.90;;;;;;4987578;28;20703;-73
2022/09/14 11:26:46;;;;;;;14.65;10.70;;;14.90;99.90;;;;;;4978603;28;20052;-73
2022/09/14 11:29:28;;;;;;;15.82;11.90;;;14.80;99.90;;;;;;4976787;28;20048;-73
2022/09/14 11:32:17;;;;;;;16.35;10.82;;;14.70;99.90;;;;;;4960249;28;20064;-73
2022/09/14 11:34:56;;;;;;;18.80;15.48;;;14.70;99.90;;;;;;4980627;28;20058;-75
2022/09/14 11:37:40;;;;;;;21.83;11.52;;;14.90;99.90;;;;;;4971876;28;20054;-74
2022/09/14 11:40:22;;;;;;;18.35;10.98;;;14.90;99.90;;;;;;4959099;28;20445;-73
2022/09/14 11:42:57;;;;;;;13.80;10.10;;;14.90;99.90;;;;;;4962877;28;20077;-75
2022/09/14 11:45:29;;;;;;;13.95;9.15;;;14.90;99.90;;;;;;4981400;28;20065;-74
2022/09/14 11:48:18;;;;;;;16.88;9.95;;;14.90;99.90;;;;;;4976599;28;20049;-75
2022/09/14 11:51:12;;;;;;;13.80;9.18;;;14.80;99.90;;;;;;4979397;28;20050;-75
2022/09/14 11:53:41;;;;;;;14.73;8.75;;;14.80;99.90;;;;;;4963815;28;20053;-73
2022/09/14 11:56:25;;;;;;;17.40;10.20;;;14.60;99.90;;;;;;4976804;28;20049;-75
2022/09/14 11:59:02;;;;;;;12.23;10.80;;;14.60;99.90;;;;;;4961062;28;20039;-76
2022/09/14 12:01:35;;;;;;;13.32;12.00;;;14.60;99.90;;;;;;4975276;28;20041;-75
2022/09/14 12:04:11;;;;;;;13.63;12.35;;;14.60;99.90;;;;;;4979646;28;20054;-75
2022/09/14 12:06:38;;;;;;;12.27;11.02;;;14.50;99.90;;;;;;4964714;28;20140;-76
2022/09/14 12:09:19;;;;;;;14.15;12.63;;;14.70;99.90;;;;;;4981020;28;20054;-74
2022/09/14 12:11:55;;;;;;;15.98;12.00;;;14.60;99.90;;;;;;4946684;28;20042;-74
2022/09/14 12:14:29;;;;;;;13.65;10.32;;;14.60;99.90;;;;;;4980412;28;20044;-74
2022/09/14 12:17:21;;;;;;;17.13;11.38;;;14.60;99.90;;;;;;4949101;28;20045;-74
2022/09/14 12:20:28;;;;;;;10.18;8.90;;;14.70;99.90;;;;;;4961953;28;20050;-74
2022/09/14 12:23:20;;;;;;;9.00;7.18;;;14.60;99.90;;;;;;4963345;28;20042;-73
2022/09/14 12:25:52;;;;;;;9.27;7.90;;;14.30;99.90;;;;;;4979325;28;20053;-75
2022/09/14 12:28:36;;;;;;;11.48;8.20;;;14.20;99.90;;;;;;4981834;28;20132;-75
2022/09/14 12:31:02;;;;;;;8.18;7.50;;;14.20;99.90;;;;;;4974728;28;20050;-75
2022/09/14 12:33:32;;;;;;;8.60;7.85;;;14.00;99.90;;;;;;4974641;28;20038;-75
2022/09/14 12:36:06;;;;;;;6.97;6.43;;;13.90;99.90;;;;;;4961060;28;20042;-76
2022/09/14 12:38:35;;;;;;;8.50;6.50;;;13.90;99.90;;;;;;4978333;28;20070;-75
2022/09/14 12:41:22;;;;;;;7.13;6.53;;;13.90;99.90;;;;;;4979230;28;20042;-75
2022/09/14 12:43:49;;;;;;;7.72;7.15;;;13.80;99.90;;;;;;4982693;28;20045;-74
2022/09/14 12:46:19;;;;;;;8.85;7.70;;;13.80;99.90;;;;;;4962600;28;20054;-74
2022/09/14 12:48:50;;;;;;;11.13;8.40;;;13.90;99.90;;;;;;4984944;28;20050;-74
2022/09/14 12:51:43;;;;;;;9.63;8.80;;;13.90;99.90;;;;;;4959605;28;20046;-74
2022/09/14 12:54:24;;;;;;;11.25;7.97;;;14.00;99.90;;;;;;4964356;28;20053;-70
2022/09/14 12:57:02;;;;;;;10.55;9.00;;;14.00;99.90;;;;;;4961521;28;20042;-71
2022/09/14 13:00:03;;;;;;;10.48;9.68;;;14.20;99.90;;;;;;4978236;28;20046;-71